createdAt,value
2022-12-23T00:01:04.765Z,94.63
2022-12-23T00:03:33.250Z,94.88
2022-12-23T00:06:00.735Z,94.85
2022-12-23T00:08:27.875Z,94.92
2022-12-23T00:10:56.771Z,94.52
2022-12-23T00:13:23.749Z,94.99
2022-12-23T00:15:50.411Z,94.83
2022-12-23T00:18:17.131Z,94.80
2022-12-23T00:20:45.105Z,95.10
2022-12-23T00:23:11.681Z,95.32
2022-12-23T00:25:42.402Z,95.37
2022-12-23T00:28:10.461Z,95.28
2022-12-23T00:30:37.719Z,95.44
2022-12-23T00:33:04.846Z,95.60
2022-12-23T00:35:31.897Z,95.53
2022-12-23T00:37:59.937Z,95.46
2022-12-23T00:40:26.672Z,95.51
2022-12-23T00:42:53.230Z,95.25
2022-12-23T00:45:20.115Z,95.25
2022-12-23T00:47:48.038Z,95.38
2022-12-23T00:50:14.807Z,95.47
2022-12-23T00:52:41.459Z,95.51
2022-12-23T00:55:09.749Z,95.13
2022-12-23T00:57:36.391Z,95.13
2022-12-23T01:00:03.437Z,95.16
2022-12-23T01:02:30.186Z,94.94
2022-12-23T01:04:56.931Z,94.85
2022-12-23T01:07:24.445Z,94.88
2022-12-23T01:09:51.094Z,94.57
2022-12-23T01:12:19.117Z,94.52
2022-12-23T01:14:45.834Z,94.63
2022-12-23T01:17:12.581Z,94.58
2022-12-23T01:19:39.706Z,94.60
2022-12-23T01:22:06.362Z,94.16
2022-12-23T01:24:33.621Z,93.88
2022-12-23T01:27:00.605Z,94.47
2022-12-23T01:29:28.618Z,94.27
2022-12-23T01:31:55.469Z,94.27
2022-12-23T01:34:22.379Z,94.34
2022-12-23T01:36:49.136Z,94.16
2022-12-23T01:39:15.920Z,94.21
2022-12-23T01:41:42.627Z,94.37
2022-12-23T01:44:46.872Z,94.40
2022-12-23T01:47:19.901Z,94.25
2022-12-23T01:49:47.628Z,94.36
2022-12-23T01:52:15.014Z,93.89
2022-12-23T01:54:42.675Z,94.10
2022-12-23T01:57:09.296Z,94.08
2022-12-23T01:59:36.249Z,94.02
2022-12-23T02:02:02.946Z,94.04
2022-12-23T02:04:31.015Z,93.92
2022-12-23T02:06:57.691Z,94.26
2022-12-23T02:09:26.349Z,94.38
2022-12-23T02:12:22.546Z,94.40
2022-12-23T02:15:01.762Z,94.26
2022-12-23T02:17:33.610Z,94.39
2022-12-23T02:20:29.107Z,94.31
2022-12-23T02:23:25.898Z,94.40
2022-12-23T02:26:14.252Z,94.37
2022-12-23T02:29:05.105Z,94.45
2022-12-23T02:31:41.867Z,94.18
2022-12-23T02:34:16.457Z,94.26
2022-12-23T02:36:50.380Z,94.41
2022-12-23T02:39:27.043Z,94.33
2022-12-23T02:41:58.781Z,94.43
2022-12-23T02:44:32.567Z,94.65
2022-12-23T02:47:04.531Z,94.87
2022-12-23T02:49:34.953Z,94.71
2022-12-23T02:52:05.114Z,94.87
2022-12-23T02:54:36.859Z,94.83
2022-12-23T02:57:06.101Z,94.88
2022-12-23T02:59:36.577Z,94.66
2022-12-23T03:02:04.681Z,94.67
2022-12-23T03:04:31.493Z,94.55
2022-12-23T03:07:01.689Z,94.39
2022-12-23T03:09:43.506Z,94.54
2022-12-23T03:12:19.509Z,94.40
2022-12-23T03:14:55.485Z,94.34
2022-12-23T03:17:35.708Z,94.39
2022-12-23T03:20:14.003Z,94.38
2022-12-23T03:22:50.839Z,94.32
2022-12-23T03:25:23.355Z,94.48
2022-12-23T03:27:55.421Z,94.23
2022-12-23T03:30:23.123Z,94.42
2022-12-23T03:32:55.311Z,94.30
2022-12-23T03:35:28.377Z,94.65
2022-12-23T03:37:57.715Z,94.48
2022-12-23T03:40:28.018Z,94.68
2022-12-23T03:43:00.847Z,94.61
2022-12-23T03:45:41.711Z,94.66
2022-12-23T03:48:19.343Z,94.66
2022-12-23T03:50:49.137Z,94.50
2022-12-23T03:53:22.348Z,94.35
2022-12-23T03:55:53.923Z,94.47
2022-12-23T03:58:33.928Z,94.56
2022-12-23T04:01:08.052Z,94.60
2022-12-23T04:03:41.923Z,94.60
2022-12-23T04:06:14.269Z,94.45
2022-12-23T04:08:43.495Z,94.61
2022-12-23T04:11:11.104Z,94.66
2022-12-23T04:13:37.968Z,94.43
2022-12-23T04:16:05.840Z,94.40
2022-12-23T04:18:32.638Z,94.56
2022-12-23T04:21:00.611Z,94.64
2022-12-23T04:23:27.444Z,94.70
2022-12-23T04:25:54.047Z,94.84
2022-12-23T04:28:20.770Z,94.74
2022-12-23T04:30:47.419Z,94.65
2022-12-23T04:33:14.038Z,94.91
2022-12-23T04:35:40.589Z,95.02
2022-12-23T04:38:08.942Z,94.78
2022-12-23T04:40:35.581Z,95.10
2022-12-23T04:43:02.178Z,95.21
2022-12-23T04:45:28.824Z,95.27
2022-12-23T04:47:55.496Z,95.32
2022-12-23T04:50:22.155Z,95.47
2022-12-23T04:52:48.787Z,95.49
2022-12-23T04:55:16.958Z,95.64
2022-12-23T04:57:43.624Z,95.73
2022-12-23T05:00:11.319Z,95.68
2022-12-23T05:02:38.087Z,95.85
2022-12-23T05:05:05.555Z,95.91
2022-12-23T05:07:32.191Z,96.16
2022-12-23T05:09:58.796Z,95.79
2022-12-23T05:12:26.986Z,95.94
2022-12-23T05:14:53.561Z,95.73
2022-12-23T05:17:20.183Z,95.87
2022-12-23T05:19:46.851Z,95.62
2022-12-23T05:22:13.483Z,95.67
2022-12-23T05:24:40.089Z,95.78
2022-12-23T05:27:06.720Z,95.58
2022-12-23T05:29:34.711Z,95.52
2022-12-23T05:32:01.336Z,95.53
2022-12-23T05:34:28.173Z,95.53
2022-12-23T05:36:54.719Z,95.41
2022-12-23T05:39:21.343Z,95.45
2022-12-23T05:41:47.950Z,95.70
2022-12-23T05:44:14.664Z,95.56
2022-12-23T05:46:42.726Z,95.66
2022-12-23T05:49:09.618Z,95.49
2022-12-23T05:51:36.219Z,95.55
2022-12-23T05:54:02.905Z,95.55
2022-12-23T05:56:29.671Z,95.41
2022-12-23T05:58:56.300Z,95.39
2022-12-23T06:01:22.863Z,95.40
2022-12-23T06:03:50.894Z,95.53
2022-12-23T06:06:17.568Z,95.38
2022-12-23T06:08:44.121Z,95.29
2022-12-23T06:11:10.782Z,95.44
2022-12-23T06:13:37.391Z,95.10
2022-12-23T06:16:04.590Z,95.31
2022-12-23T06:18:31.207Z,94.98
2022-12-23T06:20:59.216Z,95.07
2022-12-23T06:23:26.077Z,94.97
2022-12-23T06:25:58.666Z,94.75
2022-12-23T06:28:25.276Z,94.96
2022-12-23T06:30:52.918Z,94.64
2022-12-23T06:33:19.544Z,94.52
2022-12-23T06:35:46.148Z,94.76
2022-12-23T06:38:14.362Z,94.51
2022-12-23T06:40:40.982Z,94.46
2022-12-23T06:43:07.647Z,94.42
2022-12-23T06:45:34.528Z,94.37
2022-12-23T06:48:01.166Z,94.32
2022-12-23T06:50:27.747Z,94.25
2022-12-23T06:52:54.407Z,94.34
2022-12-23T06:55:22.392Z,93.98
2022-12-23T06:57:49.111Z,94.30
2022-12-23T07:00:16.760Z,94.14
2022-12-23T07:02:43.406Z,93.96
2022-12-23T07:05:10.074Z,94.11
2022-12-23T07:07:36.775Z,94.06
2022-12-23T07:10:04.155Z,94.17
2022-12-23T07:12:32.193Z,93.93
2022-12-23T07:14:58.760Z,94.05
2022-12-23T07:17:25.390Z,94.02
2022-12-23T07:19:51.953Z,94.47
2022-12-23T07:22:18.563Z,94.38
2022-12-23T07:24:45.196Z,94.51
2022-12-23T07:27:11.829Z,94.42
2022-12-23T07:29:39.812Z,94.56
2022-12-23T07:32:06.566Z,94.71
2022-12-23T07:34:33.362Z,94.96
2022-12-23T07:37:00.246Z,94.98
2022-12-23T07:39:26.833Z,95.03
2022-12-23T07:42:16.482Z,95.28
2022-12-23T07:44:41.608Z,95.16
2022-12-23T07:47:08.231Z,95.15
2022-12-23T07:49:34.804Z,95.33
2022-12-23T07:52:01.494Z,95.47
2022-12-23T07:54:28.130Z,95.43
2022-12-23T07:56:54.750Z,95.54
2022-12-23T07:59:21.301Z,95.51
2022-12-23T08:01:49.446Z,95.33
2022-12-23T08:04:16.085Z,95.68
2022-12-23T08:06:42.750Z,95.90
2022-12-23T08:09:09.672Z,95.58
2022-12-23T08:11:36.280Z,95.50
2022-12-23T08:14:02.881Z,95.78
2022-12-23T08:16:29.510Z,95.72
2022-12-23T08:18:57.477Z,95.88
2022-12-23T08:21:24.523Z,95.68
2022-12-23T08:23:51.413Z,95.81
2022-12-23T08:26:20.466Z,96.03
2022-12-23T08:28:49.192Z,96.17
2022-12-23T08:31:18.240Z,96.16
2022-12-23T08:33:47.880Z,96.08
2022-12-23T08:36:22.830Z,96.16
2022-12-23T08:38:51.900Z,96.28
2022-12-23T08:41:22.614Z,96.33
2022-12-23T08:43:49.817Z,96.15
2022-12-23T08:46:16.514Z,96.40
2022-12-23T08:48:48.955Z,96.40
2022-12-23T08:51:19.551Z,96.43
2022-12-23T08:53:47.469Z,96.47
2022-12-23T08:56:16.566Z,96.75
2022-12-23T08:58:45.322Z,96.56
2022-12-23T09:01:17.886Z,96.67
2022-12-23T09:03:45.250Z,96.82
2022-12-23T09:06:14.367Z,96.96
2022-12-23T09:08:43.209Z,97.24
2022-12-23T09:11:10.740Z,97.20
2022-12-23T09:13:37.402Z,97.18
2022-12-23T09:16:05.108Z,97.18
2022-12-23T09:18:31.810Z,97.13
2022-12-23T09:20:59.012Z,97.18
2022-12-23T09:23:25.737Z,97.19
2022-12-23T09:25:54.171Z,97.41
2022-12-23T09:28:21.179Z,97.41
2022-12-23T09:30:47.830Z,97.27
2022-12-23T09:33:14.564Z,97.59
2022-12-23T09:35:41.279Z,97.23
2022-12-23T09:38:07.957Z,97.27
2022-12-23T09:40:37.393Z,97.34
2022-12-23T09:43:18.184Z,97.32
2022-12-23T09:45:58.289Z,97.35
2022-12-23T09:48:29.170Z,97.44
2022-12-23T09:50:55.946Z,97.31
2022-12-23T09:53:27.051Z,97.30
2022-12-23T09:56:00.013Z,97.28
2022-12-23T09:58:31.773Z,97.16
2022-12-23T10:01:13.382Z,97.10
2022-12-23T10:04:06.617Z,97.09
2022-12-23T10:06:36.096Z,97.26
2022-12-23T10:09:05.017Z,97.17
2022-12-23T10:11:36.222Z,97.42
2022-12-23T10:14:14.208Z,97.23
2022-12-23T10:16:44.522Z,97.07
2022-12-23T10:19:18.016Z,97.39
2022-12-23T10:21:48.228Z,97.36
2022-12-23T10:24:20.784Z,97.63
2022-12-23T10:26:53.089Z,97.31
2022-12-23T10:29:22.712Z,97.24
2022-12-23T10:32:05.195Z,97.08
2022-12-23T10:34:41.288Z,97.40
2022-12-23T10:37:15.394Z,96.96
2022-12-23T10:39:50.704Z,96.63
2022-12-23T10:42:27.075Z,96.48
2022-12-23T10:45:14.138Z,95.98
2022-12-23T10:47:52.163Z,96.14
2022-12-23T10:50:44.112Z,95.81
2022-12-23T10:53:12.390Z,95.85
2022-12-23T10:55:39.368Z,95.11
2022-12-23T10:58:12.970Z,94.95
2022-12-23T11:00:45.241Z,95.20
2022-12-23T11:03:18.629Z,95.63
2022-12-23T11:05:45.952Z,94.90
2022-12-23T11:08:12.640Z,94.92
2022-12-23T11:10:39.813Z,94.84
2022-12-23T11:13:06.623Z,94.89
2022-12-23T11:15:35.401Z,95.17
2022-12-23T11:18:06.549Z,95.12
2022-12-23T11:20:34.198Z,94.97
2022-12-23T11:23:02.520Z,94.92
2022-12-23T11:25:35.599Z,94.85
2022-12-23T11:28:08.019Z,94.87
2022-12-23T11:30:50.284Z,95.10
2022-12-23T11:33:26.696Z,94.92
2022-12-23T11:36:06.030Z,95.03
2022-12-23T11:38:35.002Z,95.04
2022-12-23T11:41:02.995Z,95.09
2022-12-23T11:43:32.269Z,94.66
2022-12-23T11:46:24.266Z,94.89
2022-12-23T11:49:05.526Z,94.95
2022-12-23T11:51:32.423Z,94.71
2022-12-23T11:54:02.809Z,95.10
2022-12-23T11:56:35.853Z,94.78
2022-12-23T11:59:07.545Z,94.91
2022-12-23T12:01:36.068Z,94.75
2022-12-23T12:04:08.970Z,94.80
2022-12-23T12:06:42.279Z,94.79
2022-12-23T12:09:12.929Z,94.91
2022-12-23T12:11:46.309Z,95.21
2022-12-23T12:14:21.485Z,95.43
2022-12-23T12:16:56.675Z,95.24
2022-12-23T12:19:30.277Z,95.06
2022-12-23T12:22:02.218Z,95.13
2022-12-23T12:24:35.254Z,95.64
2022-12-23T12:27:05.573Z,95.41
2022-12-23T12:29:39.239Z,95.53
2022-12-23T12:32:14.438Z,95.54
2022-12-23T12:34:51.878Z,95.17
2022-12-23T12:37:26.831Z,95.09
2022-12-23T12:39:56.269Z,94.71
2022-12-23T12:42:29.300Z,93.90
2022-12-23T12:45:05.133Z,93.26
2022-12-23T12:47:53.216Z,93.94
2022-12-23T12:50:24.340Z,93.54
2022-12-23T12:52:53.868Z,93.52
2022-12-23T12:55:26.000Z,93.70
2022-12-23T12:57:52.621Z,93.28
2022-12-23T13:00:21.875Z,92.90
2022-12-23T13:03:11.373Z,92.75
2022-12-23T13:05:53.914Z,92.59
2022-12-23T13:08:39.680Z,92.54
2022-12-23T13:11:12.436Z,92.56
2022-12-23T13:13:51.176Z,92.25
2022-12-23T13:16:26.388Z,92.37
2022-12-23T13:18:59.390Z,92.50
2022-12-23T13:21:35.277Z,92.62
2022-12-23T13:24:13.051Z,92.69
2022-12-23T13:26:57.789Z,92.47
2022-12-23T13:29:44.972Z,92.54
2022-12-23T13:32:24.678Z,91.92
2022-12-23T13:35:00.284Z,91.93
2022-12-23T13:37:36.477Z,91.93
2022-12-23T13:40:17.161Z,91.67
2022-12-23T13:42:52.378Z,91.89
2022-12-23T13:45:20.145Z,91.75
2022-12-23T13:48:01.256Z,91.95
2022-12-23T13:50:36.430Z,92.01
2022-12-23T13:53:16.364Z,91.62
2022-12-23T13:55:58.869Z,91.55
2022-12-23T13:58:28.139Z,91.53
2022-12-23T14:01:18.775Z,91.58
2022-12-23T14:03:48.959Z,91.51
2022-12-23T14:06:21.736Z,91.25
2022-12-23T14:08:51.326Z,91.23
2022-12-23T14:11:21.802Z,91.37
2022-12-23T14:13:54.629Z,91.61
2022-12-23T14:16:48.652Z,91.76
2022-12-23T14:19:33.701Z,91.79
2022-12-23T14:22:12.534Z,92.08
2022-12-23T14:25:27.698Z,91.83
2022-12-23T14:28:02.431Z,91.83
2022-12-23T14:30:34.515Z,91.54
2022-12-23T14:33:03.652Z,91.67
2022-12-23T14:36:05.888Z,91.66
2022-12-23T14:38:32.914Z,91.40
2022-12-23T14:41:35.752Z,91.24
2022-12-23T14:44:02.416Z,90.85
2022-12-23T14:46:56.844Z,90.71
2022-12-23T14:49:47.337Z,90.49
2022-12-23T14:52:53.564Z,90.38
2022-12-23T14:55:51.334Z,89.83
2022-12-23T14:58:50.450Z,89.84
2022-12-23T15:01:19.981Z,89.88
2022-12-23T15:03:48.695Z,89.91
2022-12-23T15:06:19.139Z,89.94
2022-12-23T15:08:48.784Z,89.87
2022-12-23T15:11:21.694Z,89.96
2022-12-23T15:13:52.756Z,90.15
2022-12-23T15:16:19.786Z,90.47
2022-12-23T15:18:54.297Z,90.49
2022-12-23T15:21:26.568Z,90.56
2022-12-23T15:23:53.206Z,90.46
2022-12-23T15:26:21.599Z,90.41
2022-12-23T15:28:49.722Z,90.44
2022-12-23T15:31:25.661Z,90.60
2022-12-23T15:34:02.923Z,90.98
2022-12-23T15:36:33.672Z,90.87
2022-12-23T15:39:01.565Z,91.31
2022-12-23T15:41:28.876Z,91.31
2022-12-23T15:44:00.112Z,91.12
2022-12-23T15:46:30.458Z,91.32
2022-12-23T15:48:57.924Z,91.54
2022-12-23T15:51:58.200Z,91.99
2022-12-23T15:54:23.623Z,92.36
2022-12-23T15:56:53.146Z,92.51
2022-12-23T15:59:28.378Z,92.56
2022-12-23T16:01:55.506Z,92.36
2022-12-23T16:04:26.991Z,92.27
2022-12-23T16:06:55.290Z,92.32
2022-12-23T16:09:34.371Z,92.25
2022-12-23T16:12:03.612Z,92.13
2022-12-23T16:14:37.751Z,92.29
2022-12-23T16:17:21.394Z,92.29
2022-12-23T16:19:48.353Z,92.53
2022-12-23T16:22:23.922Z,92.63
2022-12-23T16:24:53.495Z,92.60
2022-12-23T16:27:27.376Z,92.37
2022-12-23T16:29:56.675Z,92.71
2022-12-23T16:32:23.317Z,92.66
2022-12-23T16:34:51.258Z,92.87
2022-12-23T16:37:17.938Z,92.89
2022-12-23T16:39:44.687Z,93.19
2022-12-23T16:42:11.344Z,93.22
2022-12-23T16:44:37.987Z,93.17
2022-12-23T16:47:15.369Z,93.33
2022-12-23T16:49:42.328Z,93.30
2022-12-23T16:52:13.148Z,93.36
2022-12-23T16:54:39.847Z,93.17
2022-12-23T16:57:06.544Z,93.33
2022-12-23T16:59:33.298Z,93.44
2022-12-23T17:02:03.747Z,93.78
2022-12-23T17:04:32.088Z,93.64
2022-12-23T17:06:58.837Z,93.56
2022-12-23T17:09:25.536Z,93.52
2022-12-23T17:11:53.538Z,93.91
2022-12-23T17:14:21.990Z,93.68
2022-12-23T17:16:49.214Z,93.53
2022-12-23T17:19:20.500Z,93.52
2022-12-23T17:21:55.779Z,93.35
2022-12-23T17:24:24.301Z,93.65
2022-12-23T17:26:51.851Z,93.21
2022-12-23T17:29:18.989Z,93.31
2022-12-23T17:31:47.284Z,93.15
2022-12-23T17:34:16.421Z,93.39
2022-12-23T17:36:49.461Z,93.18
2022-12-23T17:39:18.453Z,93.03
2022-12-23T17:41:45.131Z,93.29
2022-12-23T17:44:14.523Z,93.20
2022-12-23T17:46:41.318Z,93.31
2022-12-23T17:49:08.399Z,93.24
2022-12-23T17:51:35.091Z,93.35
2022-12-23T17:54:01.654Z,93.26
2022-12-23T17:56:30.836Z,93.15
2022-12-23T17:58:57.519Z,93.33
2022-12-23T18:01:25.864Z,93.03
2022-12-23T18:03:53.153Z,93.22
2022-12-23T18:06:22.700Z,93.18
2022-12-23T18:08:49.619Z,93.28
2022-12-23T18:11:20.373Z,93.27
2022-12-23T18:13:50.024Z,93.32
2022-12-23T18:16:16.626Z,93.24
2022-12-23T18:18:46.727Z,93.53
2022-12-23T18:21:20.204Z,93.54
2022-12-23T18:23:46.982Z,93.42
2022-12-23T18:26:14.723Z,93.63
2022-12-23T18:28:41.439Z,93.48
2022-12-23T18:31:15.194Z,93.67
2022-12-23T18:33:41.909Z,93.47
2022-12-23T18:36:18.318Z,93.35
2022-12-23T18:38:44.960Z,93.15
2022-12-23T18:41:12.305Z,93.04
2022-12-23T18:43:39.223Z,93.27
2022-12-23T18:46:06.165Z,93.42
2022-12-23T18:48:34.296Z,92.95
2022-12-23T18:51:01.041Z,93.19
2022-12-23T18:53:27.676Z,93.24
2022-12-23T18:55:55.156Z,93.32
2022-12-23T18:58:22.807Z,93.44
2022-12-23T19:00:50.722Z,93.21
2022-12-23T19:03:21.892Z,93.39
2022-12-23T19:05:50.791Z,93.45
2022-12-23T19:08:23.605Z,93.43
2022-12-23T19:10:53.521Z,93.57
2022-12-23T19:13:20.301Z,93.51
2022-12-23T19:15:46.975Z,93.63
2022-12-23T19:18:15.516Z,93.35
2022-12-23T19:20:42.465Z,93.48
2022-12-23T19:23:11.003Z,93.40
2022-12-23T19:25:40.648Z,93.69
2022-12-23T19:28:07.314Z,93.77
2022-12-23T19:30:33.952Z,93.84
2022-12-23T19:33:00.613Z,94.06
2022-12-23T19:35:27.216Z,94.05
2022-12-23T19:37:53.868Z,94.06
2022-12-23T19:40:21.909Z,94.16
2022-12-23T19:42:48.525Z,94.19
2022-12-23T19:45:15.243Z,94.44
2022-12-23T19:47:41.865Z,94.46
2022-12-23T19:50:10.565Z,94.68
2022-12-23T19:52:37.160Z,94.50
2022-12-23T19:55:04.459Z,95.02
2022-12-23T19:57:32.412Z,95.00
2022-12-23T19:59:59.136Z,94.84
2022-12-23T20:02:25.737Z,94.65
2022-12-23T20:04:52.354Z,94.77
2022-12-23T20:07:18.926Z,94.67
2022-12-23T20:09:45.558Z,95.08
2022-12-23T20:12:12.126Z,95.00
2022-12-23T20:14:40.571Z,94.89
2022-12-23T20:17:07.171Z,95.07
2022-12-23T20:19:33.816Z,94.89
2022-12-23T20:22:00.489Z,94.82
2022-12-23T20:24:27.259Z,95.08
2022-12-23T20:26:53.912Z,94.72
2022-12-23T20:29:20.447Z,95.01
2022-12-23T20:31:48.637Z,95.15
2022-12-23T20:34:16.998Z,95.33
2022-12-23T20:36:43.745Z,95.29
2022-12-23T20:39:10.465Z,95.40
2022-12-23T20:41:37.171Z,95.26
2022-12-23T20:46:52.451Z,95.63
2022-12-23T20:49:19.166Z,95.72
2022-12-23T20:51:45.838Z,95.79
2022-12-23T20:54:12.416Z,95.82
2022-12-23T20:56:39.084Z,95.72
2022-12-23T20:59:05.784Z,95.71
2022-12-23T21:01:34.583Z,95.93
2022-12-23T21:04:05.584Z,95.77
2022-12-23T21:06:33.772Z,95.52
2022-12-23T21:09:01.603Z,95.87
2022-12-23T21:11:29.099Z,95.86
2022-12-23T21:13:57.812Z,95.84
2022-12-23T21:16:28.456Z,95.73
2022-12-23T21:18:55.291Z,95.96
2022-12-23T21:21:24.823Z,95.87
2022-12-23T21:23:52.193Z,95.84
2022-12-23T21:26:20.334Z,95.70
2022-12-23T21:28:48.391Z,95.65
2022-12-23T21:31:16.455Z,95.90
2022-12-23T21:33:44.790Z,95.86
2022-12-23T21:36:19.445Z,95.75
2022-12-23T21:38:49.338Z,96.18
2022-12-23T21:41:19.413Z,95.86
2022-12-23T21:43:46.390Z,95.70
2022-12-23T21:46:14.903Z,95.79
2022-12-23T21:48:42.393Z,95.86
2022-12-23T21:51:13.526Z,96.28
2022-12-23T21:53:41.130Z,95.96
2022-12-23T21:56:11.120Z,95.80
2022-12-23T21:58:37.934Z,96.00
2022-12-23T22:01:07.234Z,95.89
2022-12-23T22:03:34.094Z,96.25
2022-12-23T22:06:09.786Z,96.26
2022-12-23T22:08:36.984Z,96.00
2022-12-23T22:11:06.330Z,96.13
2022-12-23T22:13:34.484Z,95.95
2022-12-23T22:16:01.968Z,95.82
2022-12-23T22:18:28.607Z,95.89
2022-12-23T22:20:55.473Z,95.71
2022-12-23T22:23:22.040Z,95.96
2022-12-23T22:25:52.569Z,95.81
2022-12-23T22:28:19.401Z,95.96
2022-12-23T22:30:47.418Z,95.85
2022-12-23T22:33:14.643Z,95.85
2022-12-23T22:35:41.385Z,95.79
2022-12-23T22:38:08.995Z,95.69
2022-12-23T22:40:35.712Z,95.59
2022-12-23T22:43:02.400Z,95.53
2022-12-23T22:45:29.008Z,95.65
2022-12-23T22:47:56.997Z,95.48
2022-12-23T22:50:23.544Z,95.40
2022-12-23T22:52:50.236Z,95.46
2022-12-23T22:55:16.927Z,95.37
2022-12-23T22:57:43.961Z,95.31
2022-12-23T23:00:12.828Z,95.29
2022-12-23T23:02:39.606Z,95.37
2022-12-23T23:05:12.830Z,95.34
2022-12-23T23:07:40.073Z,95.11
2022-12-23T23:10:08.107Z,95.24
2022-12-23T23:12:34.653Z,95.00
2022-12-23T23:15:01.269Z,95.31
2022-12-23T23:17:28.791Z,95.37
2022-12-23T23:19:55.596Z,95.12
2022-12-23T23:22:24.709Z,94.91
2022-12-23T23:24:52.200Z,94.86
2022-12-23T23:27:19.218Z,94.81
2022-12-23T23:29:45.990Z,94.96
2022-12-23T23:32:12.651Z,94.87
2022-12-23T23:34:39.338Z,94.98
2022-12-23T23:37:06.094Z,95.06
2022-12-23T23:39:34.097Z,95.05
2022-12-23T23:42:00.685Z,94.68
2022-12-23T23:44:27.372Z,95.05
2022-12-23T23:46:54.093Z,94.99
2022-12-23T23:49:21.579Z,94.91
2022-12-23T23:51:48.194Z,94.98
2022-12-23T23:54:14.850Z,94.95
2022-12-23T23:56:42.912Z,94.81
2022-12-23T23:59:09.546Z,94.79
